Time;durP1;ratioP1;P1;durP2;ratioP2;P2;SDS_P1;SDS_P2;PMS_P1;PMS_P2;Temp;Humidity;BMP_temperature;BMP_pressure;BME280_temperature;BME280_humidity;BME280_pressure;Samples;Min_cycle;Max_cycle;Signal;HPM_P1;HPM_P2
2020/12/28 00:02:25;;;;;;;23.57;13.75;;;;;;;-1.60;100.00;99693.73;1748585;82;21385;-72
2020/12/28 00:04:54;;;;;;;20.62;12.80;;;;;;;-1.59;100.00;99688.31;1819250;78;20939;-72
2020/12/28 00:07:24;;;;;;;26.25;13.15;;;;;;;-1.57;100.00;99694.70;1819026;78;20908;-72
2020/12/28 00:09:56;;;;;;;23.45;13.50;;;;;;;-1.57;100.00;99674.96;1749013;82;21537;-71
2020/12/28 00:12:30;;;;;;;21.73;12.98;;;;;;;-1.56;100.00;99667.41;1817024;78;21154;-71
2020/12/28 00:14:59;;;;;;;20.43;13.10;;;;;;;-1.56;100.00;99670.85;1748131;82;21937;-70
2020/12/28 00:17:28;;;;;;;21.40;13.03;;;;;;;-1.53;100.00;99667.05;1817740;78;21174;-71
2020/12/28 00:19:56;;;;;;;21.15;11.97;;;;;;;-1.52;100.00;99670.00;1818092;78;25804;-70
2020/12/28 00:22:27;;;;;;;19.42;10.95;;;;;;;-1.50;100.00;99666.70;1818086;78;26624;-72
2020/12/28 00:24:59;;;;;;;20.17;13.03;;;;;;;-1.48;100.00;99675.25;1817442;78;21806;-75
2020/12/28 00:27:27;;;;;;;21.30;11.80;;;;;;;-1.45;100.00;99681.98;1749171;82;22084;-73
2020/12/28 00:29:58;;;;;;;;;;;;;;;-1.45;100.00;99674.90;1821789;78;20995;-72
2020/12/28 00:32:28;;;;;;;22.95;14.28;;;;;;;-1.45;100.00;99669.63;1818514;78;20129;-73
2020/12/28 00:34:59;;;;;;;20.60;13.60;;;;;;;-1.45;100.00;99655.66;1786291;78;20927;-72
2020/12/28 00:37:27;;;;;;;27.95;13.18;;;;;;;-1.44;100.00;99681.02;1748836;82;21114;-74
2020/12/28 00:39:58;;;;;;;;;;;;;;;-1.43;100.00;99666.34;1821641;78;21198;-71
2020/12/28 00:42:26;;;;;;;21.00;12.85;;;;;;;-1.44;100.00;99665.21;1818816;78;20525;-71
2020/12/28 00:44:54;;;;;;;24.05;12.82;;;;;;;-1.44;100.00;99658.63;1751549;82;21027;-73
2020/12/28 00:47:24;;;;;;;17.05;11.68;;;;;;;-1.44;100.00;99656.00;1823431;78;20991;-71
2020/12/28 00:49:55;;;;;;;22.75;12.60;;;;;;;-1.46;100.00;99661.92;1820447;78;20919;-73
2020/12/28 00:52:23;;;;;;;15.35;10.88;;;;;;;-1.44;100.00;99648.91;1749544;82;22275;-71
2020/12/28 00:55:04;;;;;;;20.02;12.78;;;;;;;-1.43;100.00;99637.88;1823357;78;21010;-71
2020/12/28 00:57:33;;;;;;;18.87;12.75;;;;;;;-1.42;100.00;99647.41;1755012;81;21010;-75
2020/12/28 01:00:05;;;;;;;22.50;11.53;;;;;;;-1.42;100.00;99635.55;1786189;80;20968;-72
2020/12/28 01:02:44;;;;;;;21.20;11.35;;;;;;;-1.43;100.00;99633.92;1773537;80;21023;-74
2020/12/28 01:05:15;;;;;;;25.25;14.47;;;;;;;-1.45;100.00;99628.83;1785379;80;21210;-72
2020/12/28 01:07:44;;;;;;;22.82;14.03;;;;;;;-1.46;100.00;99623.75;1786018;80;21047;-73
2020/12/28 01:10:15;;;;;;;24.47;13.95;;;;;;;-1.46;100.00;99620.61;1756403;80;21183;-70
2020/12/28 01:12:45;;;;;;;18.87;12.00;;;;;;;-1.47;100.00;99611.56;1783786;80;21186;-73
2020/12/28 01:15:14;;;;;;;19.55;13.30;;;;;;;-1.48;100.00;99609.44;1783864;80;21173;-74
2020/12/28 01:17:44;;;;;;;20.72;11.08;;;;;;;-1.49;100.00;99600.38;1784892;80;21142;-72
2020/12/28 01:20:21;;;;;;;22.07;14.03;;;;;;;-1.52;100.00;99598.45;1784837;80;21022;-73
2020/12/28 01:22:51;;;;;;;15.28;9.53;;;;;;;-1.52;100.00;99599.77;1786112;80;20955;-73
2020/12/28 01:25:22;;;;;;;21.60;14.05;;;;;;;-1.52;100.00;99589.70;1754240;81;21680;-71
2020/12/28 01:27:53;;;;;;;22.00;15.32;;;;;;;-1.52;100.00;99583.13;1751904;81;21129;-71
2020/12/28 01:30:27;;;;;;;16.97;10.38;;;;;;;-1.52;100.00;99569.48;1754038;81;22330;-74
2020/12/28 01:33:08;;;;;;;23.40;14.05;;;;;;;-1.45;100.00;99577.98;1851760;77;28654;-72
2020/12/28 01:35:45;;;;;;;20.60;12.50;;;;;;;-1.51;100.00;99573.75;1817403;78;21042;-73
2020/12/28 01:38:13;;;;;;;;;;;;;;;-1.49;100.00;99560.89;1822574;78;21521;-73
2020/12/28 01:40:41;;;;;;;;;;;;;;;-1.51;100.00;99543.47;1821325;78;20153;-70
2020/12/28 01:43:13;;;;;;;23.47;12.95;;;;;;;-1.50;100.00;99552.18;1815040;78;20156;-70
2020/12/28 01:45:50;;;;;;;22.13;12.45;;;;;;;-1.52;100.00;99553.69;1721076;82;21514;-72
2020/12/28 01:48:19;;;;;;;26.30;15.35;;;;;;;-1.52;100.00;99558.95;1820176;78;20935;-73
2020/12/28 01:50:50;;;;;;;23.92;13.18;;;;;;;-1.51;100.00;99563.72;1820156;78;21431;-72
2020/12/28 01:53:19;;;;;;;26.37;14.95;;;;;;;-1.51;100.00;99555.82;1750390;82;21617;-71
2020/12/28 01:55:54;;;;;;;25.82;14.33;;;;;;;-1.52;100.00;99556.80;1819663;78;21018;-75
2020/12/28 01:58:29;;;;;;;26.02;16.32;;;;;;;-1.53;100.00;99555.98;1820468;78;21010;-73
2020/12/28 02:01:31;;;;;;;21.80;14.63;;;;;;;-1.54;100.00;99545.65;1750296;82;20992;-73
2020/12/28 02:04:01;;;;;;;21.52;11.53;;;;;;;-1.59;100.00;99547.48;1793885;80;21011;-75
2020/12/28 02:06:40;;;;;;;24.15;14.85;;;;;;;-1.58;100.00;99543.04;1795369;80;20904;-72
2020/12/28 02:09:13;;;;;;;26.20;14.33;;;;;;;-1.60;100.00;99535.30;1796237;80;20983;-73
2020/12/28 02:11:47;;;;;;;20.15;12.23;;;;;;;-1.58;100.00;99539.91;1795904;80;21644;-72
2020/12/28 02:14:18;;;;;;;20.68;12.80;;;;;;;-1.58;100.00;99535.95;1767394;80;20995;-73
2020/12/28 02:16:56;;;;;;;20.70;11.78;;;;;;;-1.57;100.00;99530.19;1795903;80;22556;-72
2020/12/28 02:19:34;;;;;;;29.23;14.63;;;;;;;-1.56;100.00;99529.21;1793627;80;20932;-72
2020/12/28 02:22:06;;;;;;;26.30;14.58;;;;;;;-1.57;100.00;99516.55;1796209;80;21545;-71
2020/12/28 02:24:38;;;;;;;26.33;14.50;;;;;;;-1.55;100.00;99515.85;1794401;80;21589;-72
2020/12/28 02:27:06;;;;;;;29.35;16.77;;;;;;;-1.55;100.00;99513.72;1796458;80;20984;-72
2020/12/28 02:29:42;;;;;;;22.73;14.20;;;;;;;-1.57;100.00;99511.77;1796199;80;21372;-73
2020/12/28 02:32:12;;;;;;;29.95;16.02;;;;;;;-1.57;100.00;99499.91;1796217;80;20940;-73
2020/12/28 02:34:45;;;;;;;39.35;17.85;;;;;;;-1.55;100.00;99480.82;1796437;80;20928;-72
2020/12/28 02:37:17;;;;;;;27.02;13.93;;;;;;;-1.57;100.00;99506.02;1794923;80;21166;-72
2020/12/28 02:39:55;;;;;;;24.65;15.28;;;;;;;-1.57;100.00;99501.23;1795899;80;20928;-73
2020/12/28 02:42:26;;;;;;;29.77;15.60;;;;;;;-1.55;100.00;99495.30;1795891;80;21150;-74
2020/12/28 02:45:15;;;;;;;25.32;13.88;;;;;;;-1.55;100.00;99493.48;1795701;80;21482;-72
2020/12/28 02:48:04;;;;;;;21.97;12.98;;;;;;;-1.54;100.00;99487.74;1792667;80;20961;-72
2020/12/28 02:50:55;;;;;;;26.75;12.55;;;;;;;-1.52;100.00;99493.62;1795252;80;21488;-74
2020/12/28 02:53:48;;;;;;;25.95;13.65;;;;;;;-1.49;100.00;99481.91;1794856;80;20932;-72
2020/12/28 02:56:38;;;;;;;25.97;13.15;;;;;;;-1.47;100.00;99489.14;1795433;80;21040;-71
2020/12/28 02:59:31;;;;;;;26.37;14.90;;;;;;;-1.46;100.00;99469.23;1794854;80;21015;-72
2020/12/28 03:02:29;;;;;;;27.55;13.58;;;;;;;-1.42;100.00;99497.33;1787973;80;20946;-75
2020/12/28 03:05:19;;;;;;;24.27;12.98;;;;;;;-1.42;100.00;99478.42;1771836;79;21142;-72
2020/12/28 03:10:56;;;;;;;23.83;14.40;;;;;;;-1.30;100.00;99470.89;1851318;77;28112;-70
2020/12/28 03:19:14;;;;;;;24.60;15.18;;;;;;;-1.23;100.00;99462.59;1886884;75;28985;-72
2020/12/28 03:22:05;;;;;;;25.50;15.68;;;;;;;-1.27;100.00;99455.23;1861905;77;20907;-72
2020/12/28 03:24:56;;;;;;;26.57;13.15;;;;;;;-1.26;100.00;99453.74;1861631;77;21790;-72
2020/12/28 03:27:42;;;;;;;28.00;16.60;;;;;;;-1.26;100.00;99477.45;1860968;77;21057;-71
2020/12/28 03:30:30;;;;;;;26.37;17.75;;;;;;;-1.25;100.00;99468.56;1861304;77;20955;-74
2020/12/28 03:33:20;;;;;;;29.67;17.15;;;;;;;-1.24;100.00;99457.52;1860690;77;20994;-74
2020/12/28 03:36:00;;;;;;;27.75;15.55;;;;;;;-1.19;100.00;99438.05;1873682;75;28108;-72
2020/12/28 03:38:46;;;;;;;26.23;15.30;;;;;;;-1.23;100.00;99454.69;1700555;83;20947;-71
2020/12/28 03:41:48;;;;;;;26.40;15.18;;;;;;;-1.19;100.00;99435.41;1821470;77;28282;-71
2020/12/28 03:44:56;;;;;;;25.57;14.90;;;;;;;-1.22;100.00;99437.10;1759829;79;20869;-71
2020/12/28 03:47:52;;;;;;;30.10;18.27;;;;;;;-1.21;100.00;99441.36;1766761;81;21161;-73
2020/12/28 03:50:45;;;;;;;34.30;17.20;;;;;;;-1.22;100.00;99433.15;1766365;81;21000;-74
2020/12/28 03:53:57;;;;;;;;;;;;;;;;;;;;;
2020/12/28 03:56:39;;;;;;;30.35;17.82;;;;;;;-1.20;100.00;99428.49;1766253;81;21520;-76
2020/12/28 03:59:37;;;;;;;35.33;18.32;;;;;;;-1.20;100.00;99429.81;1726436;81;21118;-74
2020/12/28 04:02:28;;;;;;;33.18;15.45;;;;;;;-1.20;100.00;99399.52;1750722;81;21371;-74
2020/12/28 04:05:16;;;;;;;22.95;13.70;;;;;;;-1.21;100.00;99421.09;1765388;81;21069;-74
2020/12/28 04:08:08;;;;;;;29.55;14.68;;;;;;;-1.21;100.00;99414.52;1756772;81;21075;-72
2020/12/28 04:11:17;;;;;;;;;;;;;;;;;;;;;
2020/12/28 04:13:48;;;;;;;32.40;16.52;;;;;;;-1.15;100.00;99400.63;1874311;75;28454;-74
2020/12/28 04:16:26;;;;;;;32.65;20.32;;;;;;;-1.19;100.00;99401.98;1818021;78;20990;-72
2020/12/28 04:19:15;;;;;;;;;;;;;;;;;;;;;
2020/12/28 04:21:57;;;;;;;32.13;17.30;;;;;;;-1.13;100.00;99385.95;1852346;77;22772;-72
2020/12/28 04:24:50;;;;;;;31.48;18.42;;;;;;;-1.16;100.00;99388.95;1770599;80;21596;-73
2020/12/28 04:27:20;;;;;;;28.47;18.95;;;;;;;-1.15;100.00;99385.31;1783639;80;21576;-71
2020/12/28 04:30:11;;;;;;;27.85;15.23;;;;;;;-1.09;100.00;99372.74;1821614;77;28578;-72
2020/12/28 04:35:47;;;;;;;27.13;16.42;;;;;;;-1.07;100.00;99391.01;1815856;78;25808;-74
2020/12/28 04:38:15;;;;;;;25.50;13.10;;;;;;;-1.10;100.00;99390.87;1827170;78;21490;-71
2020/12/28 04:43:40;;;;;;;28.00;15.20;;;;;;;-1.06;100.00;99390.80;1840575;77;29021;-74
2020/12/28 04:46:14;;;;;;;32.35;15.38;;;;;;;-1.09;100.00;99398.58;1806874;79;20892;-71
2020/12/28 04:48:47;;;;;;;25.25;15.15;;;;;;;-1.10;100.00;99389.05;1747194;82;21372;-75
2020/12/28 04:51:23;;;;;;;17.25;11.15;;;;;;;-1.08;100.00;99388.85;1778982;80;21086;-75
2020/12/28 05:04:45;;;;;;;19.80;11.78;;;;;;;-1.01;100.00;99402.12;1819354;78;28155;-71
2020/12/28 05:07:32;;;;;;;28.32;14.85;;;;;;;-1.02;100.00;99404.45;1817941;77;28489;-71
2020/12/28 05:10:27;;;;;;;26.68;13.38;;;;;;;-1.07;100.00;99393.14;1749508;81;20971;-71
2020/12/28 05:13:09;;;;;;;25.25;14.83;;;;;;;-1.08;100.00;99392.80;1759276;81;21018;-70
2020/12/28 05:15:50;;;;;;;26.27;14.73;;;;;;;-1.07;100.00;99403.67;1755812;81;21050;-69
2020/12/28 05:18:23;;;;;;;24.92;13.13;;;;;;;-1.09;100.00;99379.33;1738484;81;20960;-75
2020/12/28 05:20:52;;;;;;;19.35;11.57;;;;;;;-1.08;100.00;99382.27;1737404;81;21005;-73
2020/12/28 05:24:02;;;;;;;24.12;13.08;;;;;;;-1.03;100.00;99376.45;1844130;77;22823;-72
2020/12/28 05:26:35;;;;;;;22.80;11.68;;;;;;;-1.07;100.00;99378.65;1782432;78;21020;-74
2020/12/28 05:29:29;;;;;;;;;;;;;;;-1.07;100.00;99365.48;1793654;78;22239;-74
2020/12/28 05:43:31;;;;;;;;;;;;;;;;;;;;;
2020/12/28 05:53:15;;;;;;;21.10;14.05;;;;;;;-1.03;100.00;99352.23;1586945;87;21223;-76
2020/12/28 06:11:20;;;;;;;19.52;11.85;;;;;;;-1.03;100.00;99368.55;1755265;80;21541;-74
2020/12/28 06:14:21;;;;;;;26.10;16.13;;;;;;;-0.98;100.00;99377.56;1826759;76;38064;-72
2020/12/28 06:16:50;;;;;;;20.05;12.23;;;;;;;-1.01;100.00;99355.51;1823596;77;21485;-70
2020/12/28 06:19:23;;;;;;;23.90;13.98;;;;;;;-0.99;100.00;99347.44;1785361;80;21206;-71
2020/12/28 06:21:51;;;;;;;21.27;12.75;;;;;;;-1.00;100.00;99344.50;1746348;80;21506;-71
2020/12/28 06:24:33;;;;;;;31.00;15.83;;;;;;;-0.98;100.00;99343.78;1782049;80;21126;-70
2020/12/28 06:29:29;;;;;;;28.10;15.08;;;;;;;-0.94;100.00;99344.55;1851354;77;28912;-73
2020/12/28 06:31:58;;;;;;;22.05;13.93;;;;;;;-0.97;100.00;99340.98;1819272;78;20899;-70
2020/12/28 06:34:26;;;;;;;;;;;;;;;-0.97;100.00;99313.82;1822030;78;21189;-71
2020/12/28 07:04:14;;;;;;;26.77;13.93;;;;;;;-0.92;100.00;99304.86;1702786;81;21594;31
2020/12/28 07:06:44;;;;;;;27.93;15.10;;;;;;;-0.89;100.00;99315.02;1587565;85;21094;-72
2020/12/28 07:09:22;;;;;;;23.30;12.70;;;;;;;-0.87;100.00;99312.52;1850324;77;22714;-70
2020/12/28 07:11:50;;;;;;;23.40;12.53;;;;;;;-0.91;100.00;99319.17;1818122;78;21446;-71
2020/12/28 07:14:20;;;;;;;23.90;12.98;;;;;;;-0.90;100.00;99316.03;1748632;82;21386;-71
2020/12/28 07:16:54;;;;;;;29.27;15.05;;;;;;;-0.89;100.00;99302.66;1819113;78;21003;-70
2020/12/28 07:19:25;;;;;;;24.70;14.35;;;;;;;-0.88;100.00;99296.40;1749204;81;21052;-72
2020/12/28 07:21:55;;;;;;;30.20;12.00;;;;;;;-0.87;100.00;99270.35;1755664;81;21043;-71
2020/12/28 07:24:24;;;;;;;24.12;12.23;;;;;;;-0.84;100.00;99310.00;1783647;80;20964;-72
2020/12/28 07:26:54;;;;;;;27.37;13.88;;;;;;;-0.83;100.00;99303.75;1755314;81;21226;-71
2020/12/28 07:29:22;;;;;;;21.65;12.05;;;;;;;-0.82;100.00;99302.73;1801325;78;21644;-71
2020/12/28 07:31:50;;;;;;;24.10;17.05;;;;;;;-0.80;100.00;99290.70;1832951;78;26722;-71
2020/12/28 07:34:19;;;;;;;19.12;12.63;;;;;;;-0.79;100.00;99301.04;1833374;78;20990;-71
2020/12/28 07:36:54;;;;;;;21.60;13.88;;;;;;;-0.77;100.00;99300.36;1833352;78;21085;-72
2020/12/28 07:39:26;;;;;;;23.20;12.80;;;;;;;-0.74;100.00;99301.30;1833223;78;21302;-72
2020/12/28 07:42:00;;;;;;;19.65;10.80;;;;;;;-0.73;100.00;99285.00;1833225;78;21592;-73
2020/12/28 07:44:28;;;;;;;26.93;13.00;;;;;;;-0.71;100.00;99290.88;1833167;78;21576;-73
2020/12/28 07:47:01;;;;;;;22.67;12.80;;;;;;;-0.69;100.00;99265.16;1833615;78;21595;-73
2020/12/28 07:49:31;;;;;;;22.90;13.28;;;;;;;-0.68;100.00;99277.34;1801544;78;21041;-72
2020/12/28 07:52:20;;;;;;;21.95;13.85;;;;;;;-0.66;100.00;99270.88;1833062;78;21194;-73
2020/12/28 07:54:59;;;;;;;22.62;14.40;;;;;;;-0.63;100.00;99278.92;1833170;78;21014;-72
2020/12/28 07:57:45;;;;;;;25.50;13.40;;;;;;;-0.63;100.00;99267.05;1832540;78;21085;-72
2020/12/28 08:00:16;;;;;;;21.95;13.78;;;;;;;-0.60;100.00;99277.72;1833607;78;20872;-74
2020/12/28 08:02:59;;;;;;;24.37;13.72;;;;;;;-0.60;100.00;99260.59;1801693;78;21200;-72
2020/12/28 08:05:27;;;;;;;20.75;12.23;;;;;;;-0.60;100.00;99245.58;1833465;78;22757;-72
2020/12/28 08:07:55;;;;;;;20.48;11.43;;;;;;;-0.59;100.00;99262.20;1833018;78;21014;-74
2020/12/28 08:10:24;;;;;;;22.35;13.00;;;;;;;-0.58;100.00;99271.26;1828225;78;21046;-73
2020/12/28 08:12:58;;;;;;;23.70;12.37;;;;;;;-0.56;100.00;99270.57;1833133;78;21168;-73
2020/12/28 08:15:27;;;;;;;21.45;13.32;;;;;;;-0.55;100.00;99272.19;1832802;76;21169;-73
2020/12/28 08:18:12;;;;;;;21.90;11.50;;;;;;;-0.54;100.00;99275.16;1833246;78;21356;-70
2020/12/28 08:20:44;;;;;;;24.82;12.73;;;;;;;-0.53;100.00;99280.73;1796257;78;21197;-73
2020/12/28 08:23:11;;;;;;;26.30;13.30;;;;;;;-0.51;100.00;99284.00;1786583;80;21339;-71
2020/12/28 08:25:41;;;;;;;24.80;12.07;;;;;;;-0.52;100.00;99283.67;1786674;79;20979;-72
2020/12/28 08:28:12;;;;;;;22.45;13.88;;;;;;;-0.50;100.00;99290.09;1786688;79;20976;-72
2020/12/28 08:31:27;;;;;;;21.25;12.95;;;;;;;-0.50;100.00;99276.39;1785230;80;22099;-72
2020/12/28 08:34:05;;;;;;;20.15;13.15;;;;;;;-0.49;100.00;99283.31;1786110;79;21121;-73
2020/12/28 08:36:46;;;;;;;25.57;12.78;;;;;;;-0.49;100.00;99266.18;1782851;80;21209;-71
2020/12/28 08:39:28;;;;;;;21.68;14.35;;;;;;;-0.47;100.00;99255.42;1781198;79;21659;-73
2020/12/28 08:42:04;;;;;;;19.52;11.55;;;;;;;-0.45;100.00;99256.05;1791236;79;21094;-74
2020/12/28 08:44:40;;;;;;;19.90;13.13;;;;;;;-0.44;100.00;99248.48;1720421;82;22214;-71
2020/12/28 08:47:13;;;;;;;23.40;13.30;;;;;;;-0.42;100.00;99256.17;1703748;84;21022;-73
2020/12/28 08:49:48;;;;;;;22.42;12.33;;;;;;;-0.42;100.00;99254.34;1680840;84;21226;-70
2020/12/28 08:55:36;;;;;;;22.60;13.90;;;;;;;-0.37;100.00;99231.37;1872988;75;22683;-70
2020/12/28 08:58:08;;;;;;;24.67;12.63;;;;;;;-0.39;100.00;99230.27;1817471;78;21006;-71
2020/12/28 09:00:38;;;;;;;22.22;12.88;;;;;;;-0.38;100.00;99214.73;1818806;78;21713;-70
2020/12/28 09:03:23;;;;;;;21.37;11.97;;;;;;;-0.36;100.00;99218.52;1818201;78;21051;-71
2020/12/28 09:05:55;;;;;;;27.62;15.18;;;;;;;-0.34;100.00;99207.24;1817251;78;20936;-71
2020/12/28 09:08:30;;;;;;;23.65;13.25;;;;;;;-0.33;100.00;99193.87;1819495;78;21533;-70
2020/12/28 09:11:00;;;;;;;29.18;14.73;;;;;;;-0.32;100.00;99184.98;1819394;78;20872;-71
2020/12/28 09:13:29;;;;;;;25.15;13.75;;;;;;;-0.27;100.00;99189.64;1818950;78;21477;-71
2020/12/28 09:15:57;;;;;;;24.37;14.33;;;;;;;-0.23;100.00;99188.27;1819381;78;28556;-71
2020/12/28 09:18:25;;;;;;;31.35;14.43;;;;;;;-0.18;100.00;99185.86;1819133;78;22851;-71
2020/12/28 09:25:10;;;;;;;26.02;12.65;;;;;;;-0.13;100.00;99189.24;1750555;81;21471;-70
2020/12/28 09:31:42;;;;;;;29.48;15.58;;;;;;;-0.14;100.00;99169.16;1747553;80;21051;-72
2020/12/28 09:34:11;;;;;;;25.43;13.78;;;;;;;-0.11;100.00;99163.48;1834339;78;21069;-72
2020/12/28 09:36:42;;;;;;;18.87;11.25;;;;;;;-0.10;100.00;99166.42;1745448;81;21021;-72
2020/12/28 09:39:22;;;;;;;24.87;13.72;;;;;;;-0.09;100.00;99168.88;1806913;78;21038;-74
2020/12/28 09:42:50;;;;;;;23.50;14.43;;;;;;;-0.09;100.00;99162.28;1682780;83;21176;-72
2020/12/28 09:45:42;;;;;;;23.20;14.25;;;;;;;-0.06;100.00;99157.13;1687241;84;22115;-71
2020/12/28 09:48:12;;;;;;;18.65;10.70;;;;;;;-0.05;100.00;99154.78;1685489;84;21528;-71
2020/12/28 09:51:56;;;;;;;19.62;12.55;;;;;;;-0.06;100.00;99151.34;1537808;89;21060;-72
2020/12/28 09:55:08;;;;;;;21.40;12.25;;;;;;;-0.05;100.00;99157.42;1574308;91;21185;-72
2020/12/28 09:58:13;;;;;;;23.07;13.18;;;;;;;-0.01;100.00;99159.48;1845959;77;22834;-74
2020/12/28 10:00:42;;;;;;;18.50;11.18;;;;;;;-0.07;100.00;99150.23;1819777;78;20975;-72
2020/12/28 10:03:16;;;;;;;25.10;13.32;;;;;;;-0.19;100.00;99136.77;1749328;82;22084;-72
2020/12/28 10:05:44;;;;;;;21.27;13.05;;;;;;;-0.22;100.00;99136.65;1813139;78;21074;-72
2020/12/28 10:08:13;;;;;;;28.90;16.87;;;;;;;-0.25;100.00;99133.05;1799062;78;21141;-74
2020/12/28 10:10:58;;;;;;;32.65;16.12;;;;;;;-0.25;100.00;99137.02;1735940;82;21569;-72
2020/12/28 10:13:28;;;;;;;28.40;15.90;;;;;;;-0.25;100.00;99107.19;1818616;78;21081;-71
2020/12/28 10:15:57;;;;;;;21.75;12.25;;;;;;;-0.26;100.00;99109.02;1748868;81;21205;-73
2020/12/28 10:18:33;;;;;;;26.25;14.68;;;;;;;-0.29;100.00;99115.20;1818452;78;21065;-75
2020/12/28 10:21:06;;;;;;;23.25;12.28;;;;;;;-0.33;100.00;99106.84;1822911;78;20931;-73
2020/12/28 10:23:34;;;;;;;24.50;13.45;;;;;;;-0.37;100.00;99103.47;1773059;78;21093;-74
2020/12/28 10:26:07;;;;;;;23.98;15.18;;;;;;;-0.40;100.00;99092.80;1832533;78;21042;-72
2020/12/28 10:28:39;;;;;;;27.00;14.73;;;;;;;-0.43;100.00;99087.92;1821712;78;21467;-73
2020/12/28 10:31:32;;;;;;;25.97;16.23;;;;;;;-0.46;100.00;99088.32;1826679;78;21612;-73
2020/12/28 10:34:00;;;;;;;30.92;16.32;;;;;;;-0.50;100.00;99068.10;1833540;78;21050;-73
2020/12/28 10:36:33;;;;;;;20.50;12.80;;;;;;;-0.51;100.00;99067.81;1833291;78;21010;-72
2020/12/28 10:39:02;;;;;;;26.12;15.43;;;;;;;-0.53;100.00;99043.45;1801653;78;21113;-74
2020/12/28 10:42:16;;;;;;;32.87;18.93;;;;;;;-0.46;100.00;99061.45;1791236;77;28009;-73
2020/12/28 10:45:31;;;;;;;24.20;14.23;;;;;;;-0.48;100.00;99046.32;1807162;78;21554;-76
2020/12/28 11:01:00;;;;;;;30.30;15.03;;;;;;;-0.35;100.00;99053.98;1711327;82;21237;-73
2020/12/28 11:04:44;;;;;;;30.90;15.75;;;;;;;-0.33;100.00;99055.93;1632020;86;21218;-75
2020/12/28 11:15:33;;;;;;;23.67;13.78;;;;;;;-0.29;100.00;99032.13;1581277;89;21237;-73
2020/12/28 11:18:04;;;;;;;25.32;13.70;;;;;;;-0.28;100.00;99030.59;1596505;89;21182;-73
2020/12/28 11:21:03;;;;;;;30.15;15.83;;;;;;;-0.28;100.00;99015.28;1596291;89;21089;-72
2020/12/28 11:26:58;;;;;;;23.30;14.63;;;;;;;-0.19;100.00;99012.78;1828727;77;22003;-72
2020/12/28 11:29:41;;;;;;;;;;;;;;;;;;;;;
2020/12/28 16:18:10;;;;;;;52.90;24.90;;;;;;;-0.27;100.00;98909.59;1883728;76;28276;-74
2020/12/28 16:20:46;;;;;;;55.28;25.55;;;;;;;-0.31;100.00;98912.83;1853014;77;21577;-72
2020/12/28 16:23:25;;;;;;;39.95;19.60;;;;;;;-0.31;100.00;98900.96;1858273;76;21188;-72
2020/12/28 16:26:11;;;;;;;46.13;21.15;;;;;;;-0.31;100.00;98871.44;1781889;79;21173;-72
2020/12/28 16:29:01;;;;;;;54.60;25.00;;;;;;;-0.31;100.00;98887.27;1752279;81;21025;-72
2020/12/28 16:38:56;;;;;;;57.48;26.35;;;;;;;-0.31;100.00;98845.06;1710205;83;21078;-73
2020/12/28 17:05:19;;;;;;;36.42;18.35;;;;;;;-0.21;100.00;98845.99;1642036;86;21362;-75
2020/12/28 17:08:17;;;;;;;43.08;21.30;;;;;;;-0.15;100.00;98845.69;1803303;77;21805;-74
2020/12/28 17:11:03;;;;;;;36.48;18.85;;;;;;;-0.19;100.00;98843.17;1747040;81;21087;-75
2020/12/28 17:13:35;;;;;;;48.00;25.10;;;;;;;-0.21;100.00;98836.77;1763802;81;21349;-74
2020/12/28 17:16:09;;;;;;;34.83;17.85;;;;;;;-0.21;100.00;98836.77;1725626;81;20944;-72
2020/12/28 17:18:52;;;;;;;51.65;29.48;;;;;;;-0.21;100.00;98847.31;1761064;81;20952;-73
2020/12/28 17:21:30;;;;;;;48.75;23.65;;;;;;;-0.19;100.00;98843.17;1755846;81;21077;-73
2020/12/28 17:23:58;;;;;;;51.37;24.77;;;;;;;-0.19;100.00;98835.25;1751890;81;21043;-73
2020/12/28 17:26:31;;;;;;;45.80;22.98;;;;;;;-0.19;100.00;98837.89;1735439;80;21209;-74
2020/12/28 17:49:42;;;;;;;54.42;25.57;;;;;;;-0.14;100.00;98908.00;1738442;80;21065;-74
2020/12/28 17:52:29;;;;;;;49.85;25.12;;;;;;;-0.08;100.00;98892.16;1868069;75;23457;-73
2020/12/28 17:55:02;;;;;;;43.10;21.85;;;;;;;-0.10;100.00;98882.83;1816698;78;20928;-73
2020/12/28 17:57:35;;;;;;;46.40;21.87;;;;;;;-0.12;100.00;98880.41;1812917;78;21251;-73
2020/12/28 18:00:18;;;;;;;50.95;24.15;;;;;;;-0.12;100.00;98879.57;1816484;78;21003;-73
2020/12/28 18:02:48;;;;;;;52.58;24.80;;;;;;;-0.13;100.00;98876.12;1818702;78;20975;-73
2020/12/28 18:05:17;;;;;;;60.30;29.40;;;;;;;-0.12;100.00;98865.06;1816649;78;21556;-72
2020/12/28 18:07:47;;;;;;;70.25;33.73;;;;;;;-0.13;100.00;98883.23;1817002;78;21550;-74
2020/12/28 18:10:21;;;;;;;62.83;26.77;;;;;;;-0.14;100.00;98877.66;1817617;78;21255;-72
2020/12/28 18:13:00;;;;;;;63.52;30.00;;;;;;;-0.15;100.00;98878.66;1795221;78;20880;-72
2020/12/28 18:15:40;;;;;;;63.48;25.88;;;;;;;-0.14;100.00;98871.07;1818419;78;20979;-73
2020/12/28 18:18:37;;;;;;;70.00;28.98;;;;;;;-0.14;100.00;98857.87;1809155;78;21153;-72
2020/12/28 18:21:10;;;;;;;86.92;35.73;;;;;;;-0.15;100.00;98867.59;1776955;78;21209;-73
2020/12/28 18:23:38;;;;;;;83.47;31.97;;;;;;;-0.16;100.00;98854.62;1814721;78;21218;-72
2020/12/28 18:26:16;;;;;;;82.15;31.20;;;;;;;-0.14;100.00;98875.83;1741642;82;21051;-72
2020/12/28 18:28:45;;;;;;;82.22;30.75;;;;;;;-0.15;100.00;98874.70;1808783;78;21640;-72
2020/12/28 18:31:20;;;;;;;71.72;31.12;;;;;;;-0.15;100.00;98867.59;1748815;81;21592;-72
2020/12/28 18:33:49;;;;;;;73.00;29.35;;;;;;;-0.15;100.00;98882.62;1758362;80;20932;-71
2020/12/28 18:36:20;;;;;;;72.90;32.50;;;;;;;-0.14;100.00;98872.39;1735398;81;21291;-72
2020/12/28 18:39:03;;;;;;;76.15;33.23;;;;;;;-0.15;100.00;98887.38;1787227;80;21138;-72
2020/12/28 18:41:32;;;;;;;83.70;33.95;;;;;;;-0.13;100.00;98900.38;1755400;81;21470;-72
2020/12/28 18:44:13;;;;;;;83.50;34.23;;;;;;;-0.13;100.00;98898.55;1831782;78;21750;-72
2020/12/28 18:46:44;;;;;;;72.65;30.57;;;;;;;-0.12;100.00;98881.73;1834934;77;21031;-72
2020/12/28 19:24:50;;;;;;;48.63;27.25;;;;;;;-0.10;100.00;98839.30;1777816;79;21181;-72
2020/12/28 19:27:39;;;;;;;54.67;24.07;;;;;;;-0.11;100.00;98846.41;1691722;82;21582;-71
2020/12/28 19:30:15;;;;;;;60.83;28.05;;;;;;;-0.10;100.00;98840.62;1790203;79;21341;-72
2020/12/28 19:32:53;;;;;;;63.42;29.02;;;;;;;-0.10;100.00;98841.94;1783851;79;21512;-71
2020/12/28 19:35:34;;;;;;;;;;;;;;;;;;;;;
2020/12/28 19:38:34;;;;;;;40.48;20.62;;;;;;;-0.05;100.00;98858.80;1835523;77;23071;-72
2020/12/28 19:41:42;;;;;;;57.58;25.15;;;;;;;-0.09;100.00;98854.94;1693422;82;21232;-74
2020/12/28 19:47:47;;;;;;;49.23;24.55;;;;;;;-0.04;100.00;98834.55;1834682;77;22714;-73
2020/12/28 19:50:29;;;;;;;53.68;26.17;;;;;;;-0.08;100.00;98836.76;1801514;78;21061;-73
2020/12/28 19:53:06;;;;;;;50.48;24.10;;;;;;;-0.08;100.00;98830.68;1741321;82;21335;-72
2020/12/28 19:56:04;;;;;;;56.02;26.73;;;;;;;-0.06;100.00;98822.06;1721812;81;22165;-74
2020/12/28 19:58:50;;;;;;;54.48;24.23;;;;;;;-0.04;100.00;98813.44;1676357;84;21097;-73
2020/12/28 20:04:54;;;;;;;42.80;22.55;;;;;;;-0.03;100.00;98826.41;1697096;84;21597;-73
2020/12/28 20:07:50;;;;;;;63.00;30.30;;;;;;;0.00;100.00;98817.30;1654573;84;21260;-72
2020/12/28 20:10:33;;;;;;;44.65;21.77;;;;;;;0.02;100.00;98810.48;1607730;88;21570;-73
2020/12/28 20:16:26;;;;;;;57.27;26.68;;;;;;;0.08;100.00;98808.37;1802928;77;22699;-74
2020/12/28 20:19:09;;;;;;;44.35;20.90;;;;;;;0.03;100.00;98808.17;1749071;81;21115;-74
2020/12/28 20:22:00;;;;;;;50.30;23.18;;;;;;;0.03;100.00;98806.34;1728529;82;21217;-72
2020/12/28 20:43:27;;;;;;;65.03;29.57;;;;;;;0.05;100.00;98817.50;1712659;75;21696;-74
2020/12/28 20:45:59;;;;;;;55.78;22.80;;;;;;;0.06;100.00;98795.37;1686387;83;21456;-74
2020/12/28 20:49:32;;;;;;;57.58;29.00;;;;;;;0.12;100.00;98801.65;1760852;80;29019;-73
2020/12/28 20:52:41;;;;;;;62.45;28.00;;;;;;;0.10;100.00;98803.67;1713871;82;21248;-74
2020/12/28 20:55:35;;;;;;;63.90;27.15;;;;;;;0.11;100.00;98803.99;1684539;84;21541;-73
2020/12/28 20:58:28;;;;;;;52.40;28.90;;;;;;;0.12;100.00;98793.73;1691963;84;21529;-75
2020/12/28 21:01:15;;;;;;;42.38;20.92;;;;;;;0.15;100.00;98799.94;1692986;82;21057;-73